createdAt,value
2022-08-21T00:05:03.214Z,100255.13
2022-08-21T00:10:06.496Z,100236.41
2022-08-21T00:15:10.335Z,100236.16
2022-08-21T00:20:15.927Z,100231.88
2022-08-21T00:25:20.953Z,100218.22
2022-08-21T00:30:28.777Z,100215.91
2022-08-21T00:35:38.099Z,100205.78
2022-08-21T00:40:45.291Z,100200.41
2022-08-21T00:45:48.464Z,100192.31
2022-08-21T00:50:55.979Z,100190.44
2022-08-21T00:55:58.442Z,100199.53
2022-08-21T01:01:03.726Z,100198.94
2022-08-21T01:06:10.044Z,100204.47
2022-08-21T01:11:13.562Z,100205.59
2022-08-21T01:16:19.696Z,100200.53
2022-08-21T01:21:28.296Z,100203.06
2022-08-21T01:26:34.512Z,100199.97
2022-08-21T01:31:38.257Z,100192.25
2022-08-21T01:36:40.969Z,100190.34
2022-08-21T01:41:43.574Z,100176.81
2022-08-21T01:46:46.207Z,100183.16
2022-08-21T01:51:48.726Z,100190.88
2022-08-21T01:56:54.335Z,100199.16
2022-08-21T02:01:56.728Z,100192.25
2022-08-21T02:06:59.287Z,100208.06
2022-08-21T02:12:01.740Z,100203.47
2022-08-21T02:17:05.278Z,100198.94
2022-08-21T02:22:11.847Z,100196.28
2022-08-21T02:27:14.268Z,100183.84
2022-08-21T02:32:16.959Z,100183.94
2022-08-21T02:37:19.422Z,100181.84
2022-08-21T02:42:21.890Z,100167.38
2022-08-21T02:47:24.314Z,100177.84
2022-08-21T02:52:26.708Z,100166.75
2022-08-21T02:57:29.200Z,100154.72
2022-08-21T03:02:32.020Z,100164.44
2022-08-21T03:07:35.597Z,100150.31
2022-08-21T03:12:38.287Z,100163.59
2022-08-21T03:17:41.057Z,100158.63
2022-08-21T03:22:45.679Z,100162.16
2022-08-21T03:27:58.800Z,100170.06
2022-08-21T03:33:02.755Z,100158.63
2022-08-21T03:38:05.415Z,100171.31
2022-08-21T03:43:10.190Z,100166.91
2022-08-21T03:48:13.359Z,100165.13
2022-08-21T03:53:18.047Z,100171.25
2022-08-21T03:58:23.319Z,100176.19
2022-08-21T04:03:27.028Z,100183.97
2022-08-21T04:08:29.551Z,100182.13
2022-08-21T04:13:32.105Z,100200.53
2022-08-21T04:18:34.842Z,100201.13
2022-08-21T04:23:38.160Z,100207.59
2022-08-21T04:28:40.624Z,100202.78
2022-08-21T04:33:43.329Z,100214.19
2022-08-21T04:38:45.826Z,100215.53
2022-08-21T04:43:48.407Z,100208.63
2022-08-21T04:48:51.686Z,100217.00
2022-08-21T04:54:03.686Z,100228.13
2022-08-21T04:59:09.365Z,100221.75
2022-08-21T05:04:14.092Z,100222.16
2022-08-21T05:09:18.911Z,100226.91
2022-08-21T05:14:21.519Z,100224.19
2022-08-21T05:19:24.516Z,100217.09
2022-08-21T05:24:27.203Z,100192.56
2022-08-21T05:29:32.561Z,100217.38
2022-08-21T05:34:35.249Z,100219.28
2022-08-21T05:40:21.323Z,100229.91
2022-08-21T05:45:02.250Z,100236.31
2022-08-21T05:50:05.762Z,100218.13
2022-08-21T05:55:08.855Z,100226.47
2022-08-21T06:00:13.461Z,100223.25
2022-08-21T06:05:16.561Z,100224.72
2022-08-21T06:10:27.558Z,100223.19
2022-08-21T06:15:29.969Z,100211.88
2022-08-21T06:20:33.518Z,100209.81
2022-08-21T06:25:36.358Z,100200.16
2022-08-21T06:30:39.706Z,100203.59
2022-08-21T06:35:42.820Z,100202.28
2022-08-21T06:40:48.132Z,100201.56
2022-08-21T06:45:50.827Z,100180.22
2022-08-21T06:50:53.738Z,100199.50
2022-08-21T06:55:56.601Z,100192.53
2022-08-21T07:01:01.200Z,100201.91
2022-08-21T07:06:06.015Z,100200.59
2022-08-21T07:11:16.619Z,100202.88
2022-08-21T07:16:19.076Z,100202.59
2022-08-21T07:21:25.809Z,100204.50
2022-08-21T07:26:28.655Z,100213.06
2022-08-21T07:31:31.310Z,100217.16
2022-08-21T07:36:33.815Z,100207.22
2022-08-21T07:41:38.706Z,100199.81
2022-08-21T07:46:41.270Z,100197.63
2022-08-21T07:51:43.649Z,100187.13
2022-08-21T07:56:46.793Z,100187.22
2022-08-21T08:01:49.288Z,100135.38
2022-08-21T08:06:51.756Z,100188.06
2022-08-21T08:11:54.591Z,100190.91
2022-08-21T08:16:57.675Z,100191.28
2022-08-21T08:22:00.107Z,100190.06
2022-08-21T08:27:02.577Z,100198.06
2022-08-21T08:32:06.118Z,100196.84
2022-08-21T08:37:10.452Z,100187.28
2022-08-21T08:42:32.174Z,100168.16
2022-08-21T08:47:51.629Z,100182.88
2022-08-21T08:52:59.977Z,100194.03
2022-08-21T08:58:03.834Z,100178.88
2022-08-21T09:03:06.341Z,100185.66
2022-08-21T09:08:53.134Z,100194.88
2022-08-21T09:14:30.731Z,100200.84
2022-08-21T09:20:00.514Z,100196.75
2022-08-21T09:25:26.778Z,100196.00
2022-08-21T09:30:32.405Z,100192.84
2022-08-21T09:35:36.532Z,100186.84
2022-08-21T09:40:41.444Z,100186.91
2022-08-21T09:45:44.646Z,100180.81
2022-08-21T09:50:48.753Z,100176.81
2022-08-21T09:56:37.541Z,100191.28
2022-08-21T10:01:48.061Z,100190.47
2022-08-21T10:06:50.500Z,100197.09
2022-08-21T10:12:02.107Z,100193.53
2022-08-21T10:17:21.640Z,100190.31
2022-08-21T10:22:31.070Z,100192.00
2022-08-21T10:27:39.258Z,100192.84
2022-08-21T10:32:48.640Z,100202.41
2022-08-21T10:38:04.380Z,100199.25
2022-08-21T10:43:34.548Z,100198.50
2022-08-21T10:49:00.925Z,100199.28
2022-08-21T10:54:18.192Z,100199.28
2022-08-21T10:59:40.342Z,100205.28
2022-08-21T11:05:23.326Z,100212.75
2022-08-21T11:10:57.492Z,100216.56
2022-08-21T11:16:25.447Z,100217.38
2022-08-21T11:21:29.876Z,100217.41
2022-08-21T11:26:38.462Z,100222.69
2022-08-21T11:32:21.926Z,100216.34
2022-08-21T11:37:45.394Z,100210.81
2022-08-21T11:43:12.499Z,100216.41
2022-08-21T11:48:42.575Z,100223.22
2022-08-21T11:54:07.396Z,100222.44
2022-08-21T11:59:23.971Z,100220.03
2022-08-21T12:04:44.759Z,100220.47
2022-08-21T12:09:56.360Z,100213.94
2022-08-21T12:15:23.762Z,100222.72
2022-08-21T12:20:50.873Z,100219.69
2022-08-21T12:26:04.823Z,100226.72
2022-08-21T12:31:19.700Z,100234.47
2022-08-21T12:36:27.052Z,100244.28
2022-08-21T12:41:33.660Z,100244.13
2022-08-21T12:46:53.814Z,100237.97
2022-08-21T12:52:02.100Z,100243.59
2022-08-21T12:57:07.546Z,100244.41
2022-08-21T13:02:18.747Z,100253.41
2022-08-21T13:07:27.870Z,100256.97
2022-08-21T13:12:32.648Z,100256.72
2022-08-21T13:17:38.679Z,100262.25
2022-08-21T13:22:45.654Z,100262.69
2022-08-21T13:28:10.240Z,100269.66
2022-08-21T13:33:17.341Z,100279.31
2022-08-21T13:38:27.125Z,100285.03
2022-08-21T13:43:34.665Z,100284.31
2022-08-21T13:48:38.018Z,100251.38
2022-08-21T13:53:43.824Z,100297.28
2022-08-21T13:58:48.125Z,100291.69
2022-08-21T14:03:53.399Z,100297.53
2022-08-21T14:09:02.437Z,100301.22
2022-08-21T14:14:11.844Z,100302.88
2022-08-21T14:19:23.597Z,100309.19
2022-08-21T14:24:29.762Z,100315.09
2022-08-21T14:29:42.109Z,100318.34
2022-08-21T14:34:46.634Z,100320.41
2022-08-21T14:39:49.332Z,100323.94
2022-08-21T14:44:52.498Z,100330.81
2022-08-21T14:49:55.355Z,100342.13
2022-08-21T14:54:57.737Z,100338.88
2022-08-21T15:00:02.402Z,100328.84
2022-08-21T15:05:05.992Z,100334.69
2022-08-21T15:10:09.851Z,100334.75
2022-08-21T15:15:12.581Z,100339.78
2022-08-21T15:20:19.995Z,100342.34
2022-08-21T15:25:22.726Z,100343.41
2022-08-21T15:30:25.763Z,100346.13
2022-08-21T15:35:28.339Z,100336.03
2022-08-21T15:40:31.208Z,100322.72
2022-08-21T15:45:34.683Z,100320.66
2022-08-21T15:50:37.749Z,100336.56
2022-08-21T15:55:40.681Z,100338.63
2022-08-21T16:00:45.184Z,100346.25
2022-08-21T16:05:50.198Z,100333.19
2022-08-21T16:10:53.766Z,100329.69
2022-08-21T16:15:56.606Z,100342.06
2022-08-21T16:20:59.767Z,100338.97
2022-08-21T16:26:03.810Z,100358.34
2022-08-21T16:31:06.510Z,100351.38
2022-08-21T16:36:12.296Z,100351.38
2022-08-21T16:41:17.748Z,100350.13
2022-08-21T16:46:21.533Z,100357.63
2022-08-21T16:51:25.474Z,100362.84
2022-08-21T16:56:28.469Z,100366.41
2022-08-21T17:01:32.954Z,100380.09
2022-08-21T17:06:35.824Z,100386.66
2022-08-21T17:11:41.801Z,100361.09
2022-08-21T17:16:47.727Z,100377.41
2022-08-21T17:21:50.426Z,100384.38
2022-08-21T17:26:53.747Z,100393.16
2022-08-21T17:31:57.466Z,100392.38
2022-08-21T17:37:00.464Z,100401.72
2022-08-21T17:42:08.308Z,100406.66
2022-08-21T17:47:11.351Z,100415.16
2022-08-21T17:52:13.942Z,100413.50
2022-08-21T17:57:22.916Z,100436.13
2022-08-21T18:02:25.967Z,100441.00
2022-08-21T18:07:32.755Z,100444.91
2022-08-21T18:12:35.748Z,100447.84
2022-08-21T18:17:38.239Z,100457.53
2022-08-21T18:22:40.693Z,100461.28
2022-08-21T18:27:45.920Z,100462.28
2022-08-21T18:32:48.528Z,100465.72
2022-08-21T18:37:51.070Z,100466.53
2022-08-21T18:42:55.580Z,100461.78
2022-08-21T18:47:59.190Z,100464.72
2022-08-21T18:53:02.030Z,100475.41
2022-08-21T18:58:20.667Z,100467.44
2022-08-21T19:03:24.848Z,100474.44
2022-08-21T19:08:28.906Z,100473.66
2022-08-21T19:13:32.614Z,100451.56
2022-08-21T19:18:39.265Z,100455.94
2022-08-21T19:23:44.338Z,100462.56
2022-08-21T19:28:50.162Z,100473.56
2022-08-21T19:34:01.830Z,100452.50
2022-08-21T19:39:08.262Z,100458.25
2022-08-21T19:44:23.063Z,100469.50
2022-08-21T19:49:33.481Z,100472.13
2022-08-21T19:54:36.334Z,100483.63
2022-08-21T19:59:40.722Z,100476.59
2022-08-21T20:04:54.028Z,100477.75
2022-08-21T20:09:58.027Z,100478.53
2022-08-21T20:15:00.559Z,100484.69
2022-08-21T20:20:03.104Z,100475.78
2022-08-21T20:25:06.129Z,100481.56
2022-08-21T20:30:10.906Z,100493.84
2022-08-21T20:35:13.744Z,100486.47
2022-08-21T20:40:16.963Z,100481.69
2022-08-21T20:45:33.349Z,100495.16
2022-08-21T20:50:38.883Z,100482.00
2022-08-21T20:55:47.907Z,100472.97
2022-08-21T21:00:51.913Z,100482.19
2022-08-21T21:05:58.850Z,100480.34
2022-08-21T21:11:05.806Z,100482.69
2022-08-21T21:16:25.007Z,100479.44
2022-08-21T21:21:51.630Z,100480.50
2022-08-21T21:27:18.718Z,100484.25
2022-08-21T21:32:22.149Z,100481.09
2022-08-21T21:37:26.549Z,100485.16
2022-08-21T21:42:40.062Z,100487.69
2022-08-21T21:48:08.654Z,100495.00
2022-08-21T21:59:47.377Z,100507.91
2022-08-21T22:05:14.595Z,100480.97
2022-08-21T22:10:43.196Z,100465.31
2022-08-21T22:16:05.282Z,100482.94
2022-08-21T22:21:30.645Z,100487.09
2022-08-21T22:26:44.103Z,100491.31
2022-08-21T22:32:04.889Z,100492.81
2022-08-21T22:37:11.419Z,100504.84
2022-08-21T22:42:21.833Z,100493.00
2022-08-21T22:47:32.262Z,100490.91
2022-08-21T22:52:38.488Z,100488.63
2022-08-21T22:57:43.159Z,100495.44
2022-08-21T23:02:52.348Z,100494.38
2022-08-21T23:08:13.957Z,100490.47
2022-08-21T23:13:19.138Z,100489.31
2022-08-21T23:18:30.271Z,100501.81
2022-08-21T23:23:35.884Z,100493.19
2022-08-21T23:28:44.207Z,100486.56
2022-08-21T23:34:07.954Z,100485.13
2022-08-21T23:39:20.468Z,100496.25
2022-08-21T23:44:47.688Z,100486.78
2022-08-21T23:50:32.557Z,100494.09
2022-08-21T23:55:59.271Z,100501.03
